Time;durP1;ratioP1;P1;durP2;ratioP2;P2;SDS_P1;SDS_P2;PMS_P1;PMS_P2;Temp;Humidity;BMP_temperature;BMP_pressure;BME280_temperature;BME280_humidity;BME280_pressure;Samples;Min_cycle;Max_cycle;Signal;HPM_P1;HPM_P2
2021/08/14 00:04:28;;;;;;;16.88;6.13;;;;;;;13.46;95.21;101998.53;10413447;28;20049;-83
2021/08/14 00:09:29;;;;;;;12.68;5.97;;;;;;;13.40;94.22;101994.09;10413473;28;20063;-83
2021/08/14 00:14:32;;;;;;;15.40;7.57;;;;;;;13.47;96.24;101987.28;10420899;28;20049;-83
2021/08/14 00:19:34;;;;;;;17.20;7.05;;;;;;;13.25;95.93;101985.94;10422074;28;20049;-84
2021/08/14 00:24:35;;;;;;;14.32;6.70;;;;;;;13.41;96.25;101979.38;10393751;28;20049;-83
2021/08/14 00:29:38;;;;;;;16.02;7.72;;;;;;;13.38;97.22;101982.75;10420532;28;20131;-83
2021/08/14 00:34:39;;;;;;;17.52;8.07;;;;;;;13.48;97.00;101970.84;10419618;28;20057;-84
2021/08/14 00:39:41;;;;;;;16.73;7.88;;;;;;;13.63;97.86;101980.69;10436185;28;20045;-83
2021/08/14 00:44:42;;;;;;;20.63;8.43;;;;;;;14.02;96.67;101973.69;10391971;28;20515;-84
2021/08/14 00:49:44;;;;;;;22.75;11.00;;;;;;;14.28;96.28;101960.25;10440635;28;20140;-84
2021/08/14 00:54:46;;;;;;;26.58;10.10;;;;;;;14.39;95.80;101973.47;10438760;28;20490;-85
2021/08/14 00:59:49;;;;;;;21.77;11.63;;;;;;;14.35;95.56;101969.94;10420551;28;20054;-85
2021/08/14 01:04:51;;;;;;;21.00;10.90;;;;;;;14.25;95.93;101983.66;10451778;28;20053;-84
2021/08/14 01:09:53;;;;;;;21.90;11.07;;;;;;;14.42;95.22;101983.94;10418899;28;20061;-84
2021/08/14 01:14:55;;;;;;;19.83;10.93;;;;;;;14.56;94.90;101979.88;10438630;28;20077;-83
2021/08/14 01:19:56;;;;;;;22.20;10.35;;;;;;;14.33;96.65;101966.41;10408103;28;20049;-84
2021/08/14 01:24:58;;;;;;;23.75;10.98;;;;;;;14.42;97.31;101958.78;10409663;28;20061;-83
2021/08/14 01:30:00;;;;;;;23.83;10.80;;;;;;;14.56;94.98;101946.00;10418183;28;20132;-86
2021/08/14 01:35:02;;;;;;;23.38;10.40;;;;;;;14.63;95.76;101960.00;10445894;28;20116;-84
2021/08/14 01:40:04;;;;;;;27.83;11.82;;;;;;;14.46;97.09;101960.56;10417595;28;20057;-87
2021/08/14 01:45:07;;;;;;;20.42;10.95;;;;;;;14.21;97.33;101953.19;10437021;28;20045;-87
2021/08/14 01:50:09;;;;;;;28.90;11.77;;;;;;;14.26;97.32;101951.56;10417622;28;20084;-84
2021/08/14 01:55:10;;;;;;;24.77;10.90;;;;;;;14.37;96.69;101942.19;10417384;28;20045;-83
2021/08/14 02:00:12;;;;;;;30.45;10.75;;;;;;;14.41;96.91;101936.19;10403598;28;20059;-83
2021/08/14 02:05:14;;;;;;;19.80;10.13;;;;;;;14.31;97.25;101935.16;10416659;28;20167;-84
2021/08/14 02:10:16;;;;;;;25.33;11.57;;;;;;;14.30;97.36;101930.81;10416718;28;20060;-87
2021/08/14 02:15:17;;;;;;;26.77;10.63;;;;;;;14.24;97.79;101937.66;10416208;28;20084;-86
2021/08/14 02:20:19;;;;;;;20.02;10.43;;;;;;;14.06;98.12;101928.63;10433152;28;20412;-86
2021/08/14 02:25:21;;;;;;;20.70;9.88;;;;;;;14.01;98.44;101930.31;10416707;28;20053;-85
2021/08/14 02:30:22;;;;;;;24.13;10.45;;;;;;;13.93;99.20;101931.00;10389625;28;20050;-85
2021/08/14 02:35:26;;;;;;;20.38;9.02;;;;;;;13.84;100.00;101921.31;10388428;28;20076;-85
2021/08/14 02:40:27;;;;;;;22.65;11.48;;;;;;;13.90;99.51;101923.16;10417032;28;20136;-85
2021/08/14 02:45:30;;;;;;;25.95;11.60;;;;;;;13.92;99.34;101911.91;10414931;28;20068;-86
2021/08/14 02:50:32;;;;;;;25.20;11.30;;;;;;;13.81;99.50;101921.25;10447925;28;20049;-85
2021/08/14 02:55:33;;;;;;;22.77;10.20;;;;;;;13.66;99.94;101920.94;10414867;28;20053;-84
2021/08/14 03:00:36;;;;;;;18.48;10.65;;;;;;;13.66;100.00;101927.00;10403579;28;20080;-86
2021/08/14 03:05:37;;;;;;;23.73;10.77;;;;;;;13.76;100.00;101915.94;10388394;28;20049;-84
2021/08/14 03:10:40;;;;;;;23.42;10.95;;;;;;;13.80;100.00;101909.09;10402606;28;20136;-84
2021/08/14 03:15:42;;;;;;;26.98;12.18;;;;;;;13.73;100.00;101902.03;10413800;28;20081;-83
2021/08/14 03:20:44;;;;;;;24.15;11.98;;;;;;;13.62;100.00;101904.41;10414043;28;20053;-83
2021/08/14 03:25:45;;;;;;;26.92;10.70;;;;;;;13.62;100.00;101920.03;10413644;28;20054;-84
2021/08/14 03:30:47;;;;;;;20.00;10.02;;;;;;;13.33;100.00;101903.84;10414014;28;20045;-84
2021/08/14 03:35:49;;;;;;;25.75;11.15;;;;;;;13.27;100.00;101901.09;10412631;28;20057;-85
2021/08/14 03:40:50;;;;;;;21.65;9.98;;;;;;;13.24;100.00;101907.09;10408311;28;20081;-84
2021/08/14 03:45:54;;;;;;;23.52;11.30;;;;;;;13.32;100.00;101902.06;10415450;28;20136;-83
2021/08/14 03:50:55;;;;;;;23.98;12.45;;;;;;;13.49;100.00;101905.00;10422074;28;20053;-84
2021/08/14 03:55:57;;;;;;;29.17;11.45;;;;;;;13.50;100.00;101918.06;10422135;28;20053;-84
2021/08/14 04:01:00;;;;;;;24.27;11.30;;;;;;;13.51;100.00;101913.72;10421631;28;20064;-84
2021/08/14 04:06:02;;;;;;;22.33;11.82;;;;;;;13.61;100.00;101909.56;10454165;28;20450;-85
2021/08/14 04:11:08;;;;;;;27.88;12.23;;;;;;;13.47;100.00;101910.19;10421170;28;20505;-84
2021/08/14 04:16:09;;;;;;;25.15;11.50;;;;;;;13.36;100.00;101916.88;10416705;28;20092;-84
2021/08/14 04:21:11;;;;;;;25.30;11.75;;;;;;;13.42;100.00;101909.19;10419309;28;20122;-84
2021/08/14 04:26:12;;;;;;;22.75;10.68;;;;;;;13.41;100.00;101911.78;10420403;28;20520;-83
2021/08/14 04:31:14;;;;;;;24.92;11.40;;;;;;;13.30;100.00;101906.34;10420603;28;20045;-84
2021/08/14 04:36:15;;;;;;;21.90;11.07;;;;;;;13.61;100.00;101905.25;10419632;28;20149;-83
2021/08/14 04:41:17;;;;;;;32.67;12.02;;;;;;;13.70;100.00;101900.22;10403806;28;20053;-83
2021/08/14 04:46:19;;;;;;;28.70;12.50;;;;;;;13.68;100.00;101895.84;10423668;28;20056;-84
2021/08/14 04:51:20;;;;;;;22.38;12.20;;;;;;;13.72;100.00;101903.72;10421233;28;20463;-86
2021/08/14 04:56:22;;;;;;;26.35;13.00;;;;;;;13.63;100.00;101894.88;10442804;28;20060;-84
2021/08/14 05:01:24;;;;;;;25.02;11.52;;;;;;;13.74;99.08;101898.56;10427707;28;20132;-84
2021/08/14 05:06:26;;;;;;;29.08;12.88;;;;;;;13.74;99.20;101904.66;10420533;28;20425;-83
2021/08/14 05:11:27;;;;;;;16.17;10.45;;;;;;;13.69;98.74;101893.28;10457558;28;20122;-82
2021/08/14 05:16:29;;;;;;;24.38;11.40;;;;;;;13.76;99.43;101886.47;10423782;28;20049;-83
2021/08/14 05:21:30;;;;;;;27.25;12.80;;;;;;;14.01;97.99;101892.97;10420023;28;20122;-83
2021/08/14 05:26:32;;;;;;;25.63;11.77;;;;;;;14.23;96.87;101894.22;10419314;28;20141;-83
2021/08/14 05:31:35;;;;;;;24.23;11.63;;;;;;;14.24;96.74;101886.47;10418199;28;20129;-82
2021/08/14 05:36:36;;;;;;;25.48;12.40;;;;;;;14.36;96.38;101892.72;10416576;28;20652;-83
2021/08/14 05:41:42;;;;;;;23.50;10.93;;;;;;;14.45;95.26;101898.06;10406016;28;20111;-83
2021/08/14 05:46:43;;;;;;;25.42;12.00;;;;;;;14.57;94.29;101893.06;10412946;28;20483;-84
2021/08/14 05:51:45;;;;;;;25.95;10.80;;;;;;;14.69;93.44;101884.56;10408657;28;20083;-84
2021/08/14 05:56:49;;;;;;;20.85;12.23;;;;;;;14.85;92.90;101897.81;10417434;28;20056;-78
2021/08/14 06:01:50;;;;;;;28.98;12.98;;;;;;;14.93;92.36;101881.44;10416236;28;20049;-80
2021/08/14 06:06:52;;;;;;;26.90;13.10;;;;;;;15.10;91.40;101883.41;10413959;28;20049;-83
2021/08/14 06:11:54;;;;;;;23.63;11.25;;;;;;;15.25;91.77;101887.94;10414932;28;20081;-84
2021/08/14 06:16:55;;;;;;;20.55;12.32;;;;;;;15.47;90.29;101886.47;10416192;28;20045;-81
2021/08/14 06:21:57;;;;;;;21.88;12.77;;;;;;;15.60;90.17;101888.38;10415427;28;20374;-83
2021/08/14 06:26:58;;;;;;;25.08;12.40;;;;;;;15.76;90.09;101894.63;10408991;28;20068;-83
2021/08/14 06:32:00;;;;;;;20.48;11.07;;;;;;;15.95;89.07;101897.47;10415667;28;20517;-82
2021/08/14 06:37:01;;;;;;;20.65;10.80;;;;;;;15.98;89.38;101895.72;10402168;28;20056;-83
2021/08/14 06:42:03;;;;;;;27.33;12.27;;;;;;;16.33;87.36;101903.88;10409531;28;20049;-80
2021/08/14 06:47:05;;;;;;;20.23;9.82;;;;;;;16.50;85.81;101888.31;10377634;28;20518;-85
2021/08/14 06:52:07;;;;;;;22.08;11.18;;;;;;;16.41;85.04;101890.88;10449028;28;20053;-90
2021/08/14 06:57:15;;;;;;;20.77;10.35;;;;;;;16.53;85.20;101870.06;10397203;28;20053;-89
2021/08/14 07:02:16;;;;;;;25.50;10.23;;;;;;;16.80;84.98;101879.00;10416115;28;20085;-83
2021/08/14 07:07:18;;;;;;;21.85;12.50;;;;;;;16.75;84.02;101870.25;10408057;28;20401;-86
2021/08/14 07:12:20;;;;;;;19.85;9.88;;;;;;;16.58;84.63;101886.66;10413693;28;20303;-86
2021/08/14 07:17:22;;;;;;;22.02;10.50;;;;;;;16.92;84.53;101889.53;10415089;28;20417;-85
2021/08/14 07:22:24;;;;;;;25.23;11.85;;;;;;;17.18;83.05;101894.84;10413799;28;20477;-83
2021/08/14 07:27:25;;;;;;;26.75;10.75;;;;;;;17.34;83.88;101909.75;10412955;28;20525;-79
2021/08/14 07:32:27;;;;;;;21.35;12.30;;;;;;;17.52;83.44;101908.94;10446837;28;20054;-82
2021/08/14 07:37:30;;;;;;;22.42;10.88;;;;;;;17.53;80.87;101909.81;10413753;28;20053;-83
2021/08/14 07:42:32;;;;;;;29.92;12.85;;;;;;;17.87;82.60;101901.25;10443263;28;20463;-83
2021/08/14 07:47:35;;;;;;;27.58;12.52;;;;;;;18.30;80.82;101895.16;10447061;28;20402;-82
2021/08/14 07:52:36;;;;;;;23.13;10.23;;;;;;;17.81;81.79;101897.72;10413407;28;20054;-83
2021/08/14 07:57:42;;;;;;;18.48;10.98;;;;;;;18.30;80.17;101887.28;10411827;28;20065;-76
2021/08/14 08:02:43;;;;;;;;;;;;;;;18.42;80.39;101880.28;10408739;28;20065;-76
2021/08/14 08:07:46;;;;;;;19.40;11.68;;;;;;;18.71;78.82;101893.38;10403362;28;19947;-77
2021/08/14 08:12:48;;;;;;;26.17;12.00;;;;;;;18.65;79.42;101885.50;10416316;28;20057;-79
2021/08/14 08:17:51;;;;;;;27.77;12.50;;;;;;;19.25;78.42;101888.00;10411567;28;20049;-79
2021/08/14 08:22:53;;;;;;;22.58;12.25;;;;;;;18.62;78.34;101890.75;10405001;28;20072;-80
2021/08/14 08:27:55;;;;;;;21.55;12.73;;;;;;;19.12;76.46;101874.06;10419255;28;20042;-82
2021/08/14 08:32:57;;;;;;;30.45;15.52;;;;;;;19.00;78.49;101884.56;10414630;28;20048;-80
2021/08/14 08:37:59;;;;;;;28.35;14.70;;;;;;;19.14;76.69;101880.16;10417586;28;20052;-78
2021/08/14 08:43:00;;;;;;;31.80;15.52;;;;;;;19.22;76.39;101888.84;10406492;28;20115;-79
2021/08/14 08:48:06;;;;;;;30.13;15.25;;;;;;;19.38;77.44;101894.06;10405766;28;20056;-78
2021/08/14 08:53:08;;;;;;;31.42;17.15;;;;;;;19.52;76.49;101900.13;10401975;28;20072;-76
2021/08/14 08:58:09;;;;;;;26.70;14.77;;;;;;;18.89;77.23;101903.00;10404836;28;20049;-78
2021/08/14 09:03:15;;;;;;;28.00;13.73;;;;;;;18.66;79.54;101894.22;10418630;28;20498;-79
2021/08/14 09:08:17;;;;;;;24.05;13.18;;;;;;;19.47;75.77;101896.66;10418664;28;20074;-80
2021/08/14 09:13:21;;;;;;;24.95;14.52;;;;;;;19.14;77.62;101901.16;10422608;28;20056;-79
2021/08/14 09:18:22;;;;;;;28.98;14.50;;;;;;;18.96;77.37;101898.59;10420329;28;20045;-80
2021/08/14 09:23:24;;;;;;;24.08;14.43;;;;;;;19.13;76.68;101898.53;10418059;28;20061;-78
2021/08/14 09:28:32;;;;;;;26.98;15.73;;;;;;;18.41;78.93;101902.13;10427738;28;20043;-80
2021/08/14 09:33:35;;;;;;;34.70;16.25;;;;;;;18.33;79.58;101909.13;10423684;28;20050;-80
2021/08/14 09:38:44;;;;;;;25.38;14.85;;;;;;;18.86;77.72;101909.97;10391818;28;20045;-79
2021/08/14 09:43:51;;;;;;;28.90;15.98;;;;;;;18.45;79.36;101908.25;10449604;28;20045;-80
2021/08/14 09:48:57;;;;;;;23.83;14.63;;;;;;;18.44;79.05;101902.16;10389416;28;20124;-77
2021/08/14 09:54:00;;;;;;;21.95;13.05;;;;;;;18.80;78.44;101903.88;10402756;28;20061;-79
2021/08/14 09:59:03;;;;;;;23.92;13.48;;;;;;;18.71;79.12;101913.47;10411772;28;20493;-75
2021/08/14 10:04:06;;;;;;;27.67;13.88;;;;;;;18.78;79.10;101912.63;10415581;28;20410;-77
2021/08/14 10:09:10;;;;;;;22.90;13.55;;;;;;;18.27;79.10;101911.75;10414587;28;20046;-78
2021/08/14 10:14:12;;;;;;;23.43;13.77;;;;;;;18.28;80.58;101903.88;10410649;28;20049;-75
2021/08/14 10:19:17;;;;;;;22.10;15.48;;;;;;;18.18;81.74;101903.88;10416817;28;20136;-80
2021/08/14 10:24:21;;;;;;;25.30;17.00;;;;;;;18.58;80.60;101906.50;10409217;28;20069;-80
2021/08/14 10:29:58;;;;;;;35.70;17.48;;;;;;;18.26;82.58;101912.59;10428537;28;20067;-78
2021/08/14 10:35:12;;;;;;;33.83;17.92;;;;;;;17.98;83.17;101909.09;10378937;28;20057;-76
2021/08/14 10:40:15;;;;;;;30.83;17.27;;;;;;;18.10;83.56;101905.63;10413020;28;20081;-81
2021/08/14 10:45:19;;;;;;;31.00;17.73;;;;;;;18.22;83.77;101906.50;10441828;28;20050;-80
2021/08/14 10:50:33;;;;;;;31.90;18.92;;;;;;;18.21;84.06;101907.38;10409947;28;20565;-77
2021/08/14 10:55:34;;;;;;;28.45;17.00;;;;;;;18.28;82.08;101911.75;10415091;28;20053;-79
2021/08/14 11:00:37;;;;;;;35.75;19.05;;;;;;;18.28;83.29;101896.03;10414314;28;20414;-81
2021/08/14 11:05:41;;;;;;;28.63;16.38;;;;;;;19.40;79.01;101881.78;10415027;28;20068;-79
2021/08/14 11:10:42;;;;;;;26.83;16.48;;;;;;;19.45;76.98;101894.00;10402413;28;20486;-77
2021/08/14 11:15:44;;;;;;;25.77;14.57;;;;;;;19.20;79.08;101881.88;10406568;28;20050;-78
2021/08/14 11:20:45;;;;;;;25.50;13.65;;;;;;;19.75;76.23;101886.91;10438088;28;20395;-79
2021/08/14 11:25:47;;;;;;;24.40;13.15;;;;;;;20.11;75.51;101883.13;10400499;28;20540;-80
2021/08/14 11:30:58;;;;;;;21.48;13.25;;;;;;;20.53;74.21;101879.25;10407030;28;20053;-80
2021/08/14 11:36:07;;;;;;;20.02;14.88;;;;;;;20.67;71.50;101868.63;10415534;28;20056;-80
2021/08/14 11:41:16;;;;;;;18.88;13.95;;;;;;;19.91;74.77;101869.25;10410718;28;20072;-79
2021/08/14 11:46:23;;;;;;;21.67;13.95;;;;;;;20.69;72.06;101869.47;10402230;28;20044;-79
2021/08/14 11:51:25;;;;;;;21.98;14.00;;;;;;;20.10;74.41;101871.75;10413860;28;20056;-84
2021/08/14 11:56:28;;;;;;;22.63;11.68;;;;;;;21.21;72.28;101858.31;10414310;28;20068;-85
2021/08/14 12:01:30;;;;;;;18.33;12.10;;;;;;;20.62;71.72;101855.50;10413558;28;20128;-86
2021/08/14 12:06:33;;;;;;;19.65;12.73;;;;;;;20.65;71.66;101865.16;10424933;28;20562;-82
2021/08/14 12:11:35;;;;;;;23.15;12.90;;;;;;;20.90;70.33;101869.22;10407008;28;20073;-83
2021/08/14 12:16:41;;;;;;;16.88;12.15;;;;;;;21.61;68.42;101849.91;10422434;28;20052;-88
2021/08/14 12:21:45;;;;;;;19.60;12.30;;;;;;;21.59;70.45;101846.44;10422868;28;20056;-88
2021/08/14 12:26:49;;;;;;;18.98;11.15;;;;;;;21.73;68.07;101838.34;10420551;28;20084;-83
2021/08/14 12:31:56;;;;;;;16.05;10.85;;;;;;;22.55;66.15;101842.22;10407799;28;20053;-87
2021/08/14 12:37:06;;;;;;;18.58;10.32;;;;;;;22.29;65.86;101849.72;10394245;28;20041;-82
2021/08/14 12:42:30;;;;;;;19.17;11.32;;;;;;;22.05;67.01;101821.97;10412163;28;20050;-86
2021/08/14 12:47:33;;;;;;;17.38;10.32;;;;;;;22.41;67.74;101838.97;10436778;28;20046;-79
2021/08/14 12:52:35;;;;;;;17.50;10.32;;;;;;;22.01;65.58;101838.75;10432514;28;20124;-84
2021/08/14 12:57:36;;;;;;;17.83;9.85;;;;;;;22.36;66.45;101827.63;10420766;28;20125;-82
2021/08/14 13:02:38;;;;;;;18.52;9.95;;;;;;;21.77;67.37;101822.44;10420104;28;20054;-84
2021/08/14 13:07:39;;;;;;;16.75;8.82;;;;;;;21.73;67.91;101830.44;10406324;28;20042;-85
2021/08/14 13:12:52;;;;;;;16.48;8.60;;;;;;;22.00;66.21;101818.56;10406370;28;20489;-82
2021/08/14 13:17:56;;;;;;;15.95;7.43;;;;;;;22.39;65.95;101814.38;10407913;28;20056;-81
2021/08/14 13:22:57;;;;;;;19.38;8.45;;;;;;;22.40;64.82;101816.13;10418250;28;20557;-80
2021/08/14 13:27:59;;;;;;;15.93;7.88;;;;;;;22.33;64.25;101810.09;10418106;28;20064;-77
2021/08/14 13:33:00;;;;;;;14.48;7.70;;;;;;;22.17;63.11;101814.75;10419773;28;20059;-82
2021/08/14 13:38:02;;;;;;;16.52;8.50;;;;;;;21.94;65.45;101815.13;10417719;28;20133;-84
2021/08/14 13:43:07;;;;;;;22.00;8.25;;;;;;;22.17;64.52;101804.22;10437447;28;20057;-86
2021/08/14 13:48:09;;;;;;;14.05;6.85;;;;;;;22.19;64.15;101814.75;10417732;28;20064;-78
2021/08/14 13:53:10;;;;;;;13.48;7.68;;;;;;;22.33;65.17;101804.81;10412246;28;20555;-82
2021/08/14 13:58:12;;;;;;;14.50;7.43;;;;;;;22.15;62.54;101813.94;10417668;28;20053;-83
2021/08/14 14:03:14;;;;;;;16.58;7.28;;;;;;;22.60;63.36;101806.06;10436770;28;20053;-83
2021/08/14 14:08:15;;;;;;;14.35;6.38;;;;;;;22.41;63.13;101807.31;10410402;28;20053;-81
2021/08/14 14:13:17;;;;;;;16.10;6.32;;;;;;;22.60;61.56;101807.84;10413758;28;20053;-86
2021/08/14 14:18:18;;;;;;;16.75;5.75;;;;;;;22.56;60.65;101806.16;10424389;28;20061;-83
2021/08/14 14:23:20;;;;;;;20.98;6.43;;;;;;;22.79;60.06;101803.91;10394522;28;20057;-80
2021/08/14 14:28:21;;;;;;;17.05;6.15;;;;;;;22.34;61.86;101798.63;10404081;28;20054;-81
2021/08/14 14:33:23;;;;;;;11.93;5.63;;;;;;;22.44;61.12;101789.66;10414233;28;20054;-83
2021/08/14 14:38:24;;;;;;;13.50;6.07;;;;;;;22.45;63.29;101798.44;10408904;28;20053;-81
2021/08/14 14:43:26;;;;;;;10.30;5.50;;;;;;;22.40;61.17;101800.28;10415424;28;20054;-85
2021/08/14 14:48:28;;;;;;;10.25;4.70;;;;;;;22.39;59.67;101782.72;10406546;28;20049;-82
2021/08/14 14:53:29;;;;;;;11.82;4.50;;;;;;;22.17;58.91;101780.47;10415193;28;20056;-82
2021/08/14 14:58:31;;;;;;;7.47;3.33;;;;;;;22.42;57.99;101786.19;10405222;28;20045;-80
2021/08/14 15:03:36;;;;;;;7.22;3.55;;;;;;;22.59;56.06;101779.72;10415481;28;20137;-78
2021/08/14 15:08:42;;;;;;;12.10;3.63;;;;;;;22.04;57.16;101778.94;10389767;28;20077;-84
2021/08/14 15:13:45;;;;;;;7.53;3.33;;;;;;;22.36;57.47;101783.69;10432646;28;20057;-79
2021/08/14 15:18:46;;;;;;;10.35;4.35;;;;;;;22.18;57.29;101779.63;10409895;28;20048;-80
2021/08/14 15:23:48;;;;;;;7.47;4.18;;;;;;;21.85;57.72;101778.41;10412447;28;20115;-81
2021/08/14 15:28:50;;;;;;;7.28;3.78;;;;;;;21.61;58.11;101778.78;10397827;28;20128;-81
2021/08/14 15:33:52;;;;;;;11.45;4.65;;;;;;;21.89;57.69;101771.28;10441485;28;20090;-81
2021/08/14 15:38:53;;;;;;;7.85;3.30;;;;;;;21.85;57.45;101772.28;10431433;28;20046;-80
2021/08/14 15:43:55;;;;;;;7.40;3.85;;;;;;;21.81;57.65;101771.44;10423621;28;20061;-80
2021/08/14 15:48:56;;;;;;;10.13;4.30;;;;;;;22.14;56.12;101764.75;10396969;28;20060;-77
2021/08/14 15:53:58;;;;;;;9.63;3.47;;;;;;;22.19;56.50;101756.75;10423178;28;20140;-79
2021/08/14 15:59:00;;;;;;;6.93;5.07;;;;;;;21.89;58.19;101763.38;10409090;28;20056;-81
2021/08/14 16:04:01;;;;;;;7.18;4.07;;;;;;;22.23;57.33;101761.91;10440734;28;20137;-79
2021/08/14 16:09:20;;;;;;;7.63;3.63;;;;;;;21.85;56.87;101753.81;10397117;28;20045;-79
2021/08/14 16:14:22;;;;;;;13.65;4.65;;;;;;;21.84;56.80;101744.16;10421902;28;20057;-79
2021/08/14 16:19:23;;;;;;;5.15;3.75;;;;;;;21.86;57.53;101745.00;10422982;28;20044;-80
2021/08/14 16:24:25;;;;;;;7.95;3.80;;;;;;;22.06;56.61;101740.25;10404615;28;20060;-79
2021/08/14 16:29:26;;;;;;;6.38;3.83;;;;;;;21.78;58.10;101734.59;10408152;28;20046;-79
2021/08/14 16:34:28;;;;;;;6.15;3.83;;;;;;;21.74;59.17;101725.03;10392435;28;20086;-79
2021/08/14 16:39:29;;;;;;;6.20;3.65;;;;;;;21.78;58.34;101721.41;10449976;28;20052;-78
2021/08/14 16:44:31;;;;;;;7.32;3.30;;;;;;;21.83;57.36;101726.63;10406273;28;20052;-79
2021/08/14 16:49:32;;;;;;;6.63;3.45;;;;;;;21.76;58.95;101728.50;10406612;28;20042;-79
2021/08/14 16:54:34;;;;;;;11.30;4.45;;;;;;;21.78;59.09;101715.28;10395182;28;20053;-83
2021/08/14 16:59:36;;;;;;;11.63;4.38;;;;;;;21.98;56.29;101717.56;10406166;28;20057;-79
2021/08/14 17:04:37;;;;;;;6.32;3.95;;;;;;;21.59;57.09;101726.13;10407822;28;20403;-80
2021/08/14 17:09:39;;;;;;;5.13;4.03;;;;;;;22.05;58.35;101717.41;10412077;28;20045;-79
2021/08/14 17:14:40;;;;;;;7.25;4.43;;;;;;;21.91;57.64;101715.06;10419217;28;20065;-81
2021/08/14 17:19:42;;;;;;;6.53;4.13;;;;;;;21.53;58.10;101723.63;10437422;28;20045;-84
2021/08/14 17:24:44;;;;;;;10.68;4.57;;;;;;;21.70;57.19;101718.06;10421821;28;20057;-81
2021/08/14 17:29:46;;;;;;;7.38;3.88;;;;;;;21.93;56.95;101715.03;10414856;28;20041;-83
2021/08/14 17:34:47;;;;;;;4.93;3.47;;;;;;;21.88;58.52;101716.88;10396974;28;20045;-82
2021/08/14 17:39:49;;;;;;;8.32;3.88;;;;;;;21.76;58.18;101727.63;10417112;28;20502;-73
2021/08/14 17:44:50;;;;;;;11.93;4.63;;;;;;;21.86;56.60;101718.66;10412699;28;20410;-81
2021/08/14 17:49:52;;;;;;;8.38;4.60;;;;;;;21.41;58.35;101719.41;10391947;28;20041;-84
2021/08/14 17:54:53;;;;;;;6.78;3.97;;;;;;;21.56;58.33;101712.19;10401206;28;20057;-80
2021/08/14 17:59:54;;;;;;;6.10;4.13;;;;;;;21.47;58.92;101696.50;10407296;28;20068;-83
2021/08/14 18:04:56;;;;;;;7.78;4.50;;;;;;;20.84;60.94;101698.31;10405772;28;20056;-86
2021/08/14 18:09:57;;;;;;;7.05;4.35;;;;;;;20.78;61.55;101695.78;10406073;28;20049;-86
2021/08/14 18:14:59;;;;;;;8.77;4.55;;;;;;;20.58;62.93;101693.38;10414840;28;20061;-86
2021/08/14 18:20:03;;;;;;;6.30;3.78;;;;;;;20.41;63.75;101694.47;10402924;28;20049;-85
2021/08/14 18:25:05;;;;;;;6.38;4.57;;;;;;;20.29;64.93;101693.72;10409191;28;20057;-85
2021/08/14 18:30:07;;;;;;;10.27;5.05;;;;;;;20.00;65.66;101688.78;10414914;28;20049;-86
2021/08/14 18:35:11;;;;;;;6.88;4.32;;;;;;;19.93;68.26;101688.88;10438574;28;20057;-87
2021/08/14 18:40:13;;;;;;;8.25;4.90;;;;;;;19.88;69.36;101682.81;10403063;28;20426;-85
2021/08/14 18:45:16;;;;;;;5.78;4.82;;;;;;;19.33;71.90;101682.38;10409359;28;20138;-86
2021/08/14 18:50:17;;;;;;;6.35;4.72;;;;;;;19.31;72.64;101678.88;10402778;28;20133;-86
2021/08/14 18:55:20;;;;;;;11.95;4.72;;;;;;;18.82;74.50;101680.09;10398285;28;20053;-86
2021/08/14 19:00:21;;;;;;;8.32;4.38;;;;;;;18.71;74.81;101685.41;10412759;28;20050;-86
2021/08/14 19:05:23;;;;;;;6.70;4.25;;;;;;;18.83;75.29;101685.31;10413429;28;20071;-86
2021/08/14 19:10:24;;;;;;;7.55;5.18;;;;;;;18.71;76.07;101688.03;10412554;28;20053;-85
2021/08/14 19:15:26;;;;;;;8.02;4.45;;;;;;;18.44;76.34;101681.16;10412105;28;20073;-86
2021/08/14 19:20:33;;;;;;;10.35;4.75;;;;;;;18.20;77.30;101680.34;10413741;28;20057;-82
2021/08/14 19:25:35;;;;;;;8.15;5.35;;;;;;;17.98;80.21;101682.16;10409343;28;20061;-82
2021/08/14 19:30:37;;;;;;;9.20;4.78;;;;;;;17.72;81.85;101689.19;10391195;28;20045;-82
2021/08/14 19:35:40;;;;;;;6.18;4.72;;;;;;;17.48;81.68;101687.41;10402019;28;20057;-82
2021/08/14 19:40:42;;;;;;;8.00;4.70;;;;;;;17.17;82.61;101690.00;10410222;28;20061;-81
2021/08/14 19:45:44;;;;;;;7.13;4.88;;;;;;;17.19;83.06;101690.91;10410016;28;20053;-81
2021/08/14 19:50:45;;;;;;;8.05;4.88;;;;;;;16.95;85.29;101691.69;10409261;28;20052;-81
2021/08/14 19:55:47;;;;;;;10.02;6.03;;;;;;;16.78;85.95;101689.91;10411182;28;20140;-81
2021/08/14 20:00:49;;;;;;;8.65;5.40;;;;;;;16.74;85.99;101690.81;10384739;28;20073;-82
2021/08/14 20:05:50;;;;;;;8.20;5.50;;;;;;;16.46;87.83;101690.66;10396700;28;20050;-82
2021/08/14 20:10:52;;;;;;;8.85;4.90;;;;;;;16.35;87.58;101684.50;10394281;28;20060;-82
2021/08/14 20:15:53;;;;;;;10.02;6.10;;;;;;;16.18;88.53;101676.59;10407321;28;20057;-82
2021/08/14 20:20:55;;;;;;;8.50;5.55;;;;;;;16.32;87.12;101676.66;10409077;28;20053;-82
2021/08/14 20:25:56;;;;;;;7.47;4.65;;;;;;;16.10;89.03;101676.53;10396354;28;20065;-82
2021/08/14 20:30:58;;;;;;;8.45;5.60;;;;;;;15.98;89.54;101670.38;10410897;28;20050;-82
2021/08/14 20:36:01;;;;;;;8.70;5.30;;;;;;;15.72;90.48;101659.81;10401573;28;20057;-84
2021/08/14 20:41:03;;;;;;;9.80;5.68;;;;;;;15.81;89.49;101662.44;10395958;28;20141;-83
2021/08/14 20:46:07;;;;;;;9.45;5.85;;;;;;;15.71;89.64;101650.19;10449850;28;20067;-83
2021/08/14 20:51:10;;;;;;;11.38;5.63;;;;;;;15.51;91.00;101656.13;10418198;28;20049;-84
2021/08/14 20:56:12;;;;;;;9.52;5.05;;;;;;;15.28;92.15;101647.25;10402555;28;20112;-84
2021/08/14 21:01:14;;;;;;;10.40;5.32;;;;;;;15.28;92.07;101647.25;10414281;28;20096;-85
2021/08/14 21:06:16;;;;;;;7.63;4.75;;;;;;;15.14;91.89;101639.28;10387069;28;20053;-84
2021/08/14 21:11:18;;;;;;;6.88;5.20;;;;;;;15.21;92.33;101642.84;10436735;28;20379;-84
2021/08/14 21:16:28;;;;;;;10.40;5.60;;;;;;;15.01;92.79;101647.88;10409720;28;20057;-84
2021/08/14 21:21:33;;;;;;;8.18;5.75;;;;;;;14.84;93.53;101642.50;10420779;28;20458;-84
2021/08/14 21:26:36;;;;;;;8.27;5.40;;;;;;;14.76;94.40;101644.16;10418131;28;20401;-84
2021/08/14 21:31:38;;;;;;;6.43;4.80;;;;;;;14.63;94.53;101634.44;10417112;28;20187;-84
2021/08/14 21:36:43;;;;;;;7.65;5.38;;;;;;;14.52;94.62;101623.91;10416704;28;20505;-84
2021/08/14 21:41:44;;;;;;;7.68;4.93;;;;;;;14.54;93.94;101630.91;10416562;28;20045;-84
2021/08/14 21:46:46;;;;;;;11.35;5.88;;;;;;;14.43;95.19;101629.84;10411032;28;20049;-84
2021/08/14 21:51:54;;;;;;;11.15;5.75;;;;;;;14.45;95.43;101635.94;10422101;28;20410;-84
2021/08/14 21:56:55;;;;;;;8.43;4.78;;;;;;;14.36;94.96;101632.38;10399899;28;20053;-84
2021/08/14 22:01:57;;;;;;;9.82;5.70;;;;;;;14.39;94.33;101627.19;10416313;28;20417;-84
2021/08/14 22:07:00;;;;;;;11.32;5.70;;;;;;;14.33;94.75;101631.47;10411328;28;20056;-83
2021/08/14 22:12:04;;;;;;;8.55;6.20;;;;;;;14.26;94.93;101628.78;10416103;28;20061;-83
2021/08/14 22:17:05;;;;;;;12.40;6.07;;;;;;;14.12;96.11;101633.81;10403843;28;20050;-84
2021/08/14 22:22:08;;;;;;;9.55;5.57;;;;;;;14.02;96.29;101629.34;10407402;28;20057;-83
2021/08/14 22:27:09;;;;;;;9.25;5.32;;;;;;;14.06;95.09;101616.38;10401317;28;20064;-83
2021/08/14 22:32:11;;;;;;;11.35;6.13;;;;;;;14.00;95.03;101623.22;10415257;28;20049;-83
2021/08/14 22:37:15;;;;;;;11.63;6.88;;;;;;;13.92;96.23;101625.75;10387976;28;20058;-83
2021/08/14 22:42:16;;;;;;;9.02;6.10;;;;;;;13.84;97.00;101621.28;10393468;28;20061;-82
2021/08/14 22:47:18;;;;;;;7.00;5.45;;;;;;;13.75;97.15;101619.44;10410976;28;20053;-84
2021/08/14 22:52:19;;;;;;;9.88;5.70;;;;;;;13.78;97.03;101612.56;10401403;28;20547;-83